Time;durP1;ratioP1;P1;durP2;ratioP2;P2;SDS_P1;SDS_P2;PMS_P1;PMS_P2;Temp;Humidity;BMP_temperature;BMP_pressure;BME280_temperature;BME280_humidity;BME280_pressure;Samples;Min_cycle;Max_cycle;Signal;HPM_P1;HPM_P2
2021/09/23 00:00:17;;;;;;;11.95;5.38;;;15.60;99.90;;;;;;5056515;28;20041;-93
2021/09/23 00:03:11;;;;;;;15.82;5.47;;;14.20;99.90;;;;;;5075672;28;20037;-92
2021/09/23 00:05:45;;;;;;;11.45;5.78;;;14.30;99.90;;;;;;5028758;28;20040;-93
2021/09/23 00:08:30;;;;;;;9.45;5.38;;;14.20;99.90;;;;;;5040588;28;20051;-92
2021/09/23 00:11:12;;;;;;;7.97;4.90;;;14.20;99.90;;;;;;5077444;28;20040;-92
2021/09/23 00:13:54;;;;;;;15.82;5.88;;;14.20;99.90;;;;;;5044444;28;20053;-90
2021/09/23 00:16:48;;;;;;;16.52;6.68;;;14.10;99.90;;;;;;5050119;28;20040;-91
2021/09/23 00:19:31;;;;;;;9.30;5.25;;;14.10;99.90;;;;;;5079232;28;20061;-92
2021/09/23 00:23:03;;;;;;;14.70;6.40;;;14.10;99.90;;;;;;5052541;28;20029;-91
2021/09/23 00:25:56;;;;;;;12.43;6.63;;;14.10;99.90;;;;;;5083651;28;20063;-91
2021/09/23 00:28:48;;;;;;;11.50;5.70;;;13.90;99.90;;;;;;5049943;28;20036;-92
2021/09/23 00:31:23;;;;;;;14.38;6.03;;;13.60;99.90;;;;;;5076566;28;20053;-93
2021/09/23 00:35:09;;;;;;;15.10;6.97;;;14.10;99.90;;;;;;5046828;28;20048;-92
2021/09/23 00:37:58;;;;;;;11.85;6.40;;;14.10;99.90;;;;;;5053682;28;20056;-92
2021/09/23 00:40:50;;;;;;;13.70;6.03;;;14.00;99.90;;;;;;5060910;28;20056;-91
2021/09/23 00:43:49;;;;;;;14.45;7.15;;;14.10;99.90;;;;;;5048355;28;20056;-91
2021/09/23 00:46:43;;;;;;;15.77;6.10;;;14.10;99.90;;;;;;5041984;28;20057;-92
2021/09/23 00:49:33;;;;;;;14.95;6.65;;;13.60;99.90;;;;;;5045754;28;20057;-92
2021/09/23 00:52:27;;;;;;;13.20;6.97;;;14.00;99.90;;;;;;5051180;28;20067;-93
2021/09/23 00:55:13;;;;;;;18.10;7.60;;;14.00;99.90;;;;;;5060819;28;20059;-92
2021/09/23 00:57:50;;;;;;;12.38;5.97;;;14.00;99.90;;;;;;5038798;28;20055;-91
2021/09/23 01:00:42;;;;;;;12.80;6.55;;;14.10;99.90;;;;;;5080848;28;20049;-92
2021/09/23 01:04:10;;;;;;;15.50;8.05;;;13.90;99.90;;;;;;5063897;28;20190;-92
2021/09/23 01:06:52;;;;;;;16.20;7.18;;;13.90;99.90;;;;;;5067368;28;20060;-91
2021/09/23 01:09:26;;;;;;;12.75;5.82;;;15.10;99.90;;;;;;5065879;28;20040;-92
2021/09/23 01:12:04;;;;;;;16.88;7.65;;;14.70;99.90;;;;;;5070798;28;20045;-92
2021/09/23 01:14:56;;;;;;;13.50;6.15;;;13.90;99.90;;;;;;5065689;28;20067;-91
2021/09/23 01:17:42;;;;;;;14.27;6.85;;;13.80;99.90;;;;;;5038866;28;20033;-92
2021/09/23 01:20:46;;;;;;;14.98;6.90;;;13.80;99.90;;;;;;5091526;28;20053;-92
2021/09/23 01:23:29;;;;;;;18.70;7.28;;;13.80;99.90;;;;;;5042084;28;20041;-92
2021/09/23 01:26:06;;;;;;;24.02;8.65;;;13.80;99.90;;;;;;5058605;28;20055;-92
2021/09/23 01:28:45;;;;;;;13.43;6.88;;;13.70;99.90;;;;;;5055732;28;20059;-93
2021/09/23 01:31:20;;;;;;;13.90;6.20;;;13.70;99.90;;;;;;5067770;28;20048;-93
2021/09/23 01:33:55;;;;;;;15.10;7.45;;;13.70;99.90;;;;;;5082334;28;20505;-92
2021/09/23 01:36:27;;;;;;;12.07;6.95;;;13.60;99.90;;;;;;5055373;28;20044;-92
2021/09/23 01:39:18;;;;;;;13.95;6.32;;;13.60;99.90;;;;;;5091298;28;20068;-91
2021/09/23 01:42:28;;;;;;;14.30;7.30;;;13.70;99.90;;;;;;5063653;28;20052;-92
2021/09/23 01:45:28;;;;;;;15.85;6.75;;;12.60;99.90;;;;;;5070679;28;20045;-92
2021/09/23 01:48:16;;;;;;;13.90;7.22;;;13.50;99.90;;;;;;5018534;28;20056;-91
2021/09/23 01:50:59;;;;;;;15.40;7.38;;;13.50;99.90;;;;;;5051819;28;20044;-92
2021/09/23 01:53:33;;;;;;;14.15;6.55;;;13.50;99.90;;;;;;5038503;28;20039;-92
2021/09/23 01:56:10;;;;;;;15.15;7.00;;;13.60;99.90;;;;;;5046377;28;20051;-92
2021/09/23 01:59:14;;;;;;;15.70;6.72;;;13.40;99.90;;;;;;5030053;28;20057;-91
2021/09/23 02:01:49;;;;;;;14.38;7.68;;;13.40;99.90;;;;;;5090318;28;20036;-91
2021/09/23 02:04:39;;;;;;;10.57;5.77;;;13.40;99.90;;;;;;5053428;28;20053;-91
2021/09/23 02:07:30;;;;;;;10.57;6.35;;;13.40;99.90;;;;;;5046187;28;20047;-92
2021/09/23 02:10:34;;;;;;;13.02;6.50;;;13.40;99.90;;;;;;5024105;28;20052;-92
2021/09/23 02:13:11;;;;;;;13.63;7.60;;;13.30;99.90;;;;;;5088812;28;20045;-92
2021/09/23 02:15:47;;;;;;;13.15;6.78;;;13.40;99.90;;;;;;5037926;28;20032;-92
2021/09/23 02:18:38;;;;;;;10.98;5.65;;;13.30;99.90;;;;;;5074209;28;20061;-90
2021/09/23 02:21:48;;;;;;;15.45;6.28;;;13.30;99.90;;;;;;5054275;28;20060;-91
2021/09/23 02:24:33;;;;;;;12.85;5.70;;;13.30;99.90;;;;;;5067701;28;20151;-93
2021/09/23 02:27:20;;;;;;;13.30;6.70;;;13.30;99.90;;;;;;5063451;28;20041;-91
2021/09/23 02:30:18;;;;;;;12.18;6.47;;;13.30;99.90;;;;;;5071815;28;20033;-90
2021/09/23 02:33:20;;;;;;;9.48;5.45;;;13.30;99.90;;;;;;5083255;23;20051;-87
2021/09/23 02:35:51;;;;;;;14.50;5.85;;;12.10;99.90;;;;;;5064514;28;20057;-85
2021/09/23 02:38:21;;;;;;;13.27;6.95;;;13.20;99.90;;;;;;5082676;28;20043;-86
2021/09/23 02:40:58;;;;;;;13.00;7.75;;;13.20;99.90;;;;;;5065830;28;20039;-87
2021/09/23 02:44:35;;;;;;;11.60;6.13;;;13.20;99.90;;;;;;5073774;28;20033;-86
2021/09/23 02:47:04;;;;;;;13.77;6.18;;;13.20;99.90;;;;;;5071068;28;20036;-87
2021/09/23 02:49:44;;;;;;;13.68;6.28;;;13.20;99.90;;;;;;5062548;28;20045;-87
2021/09/23 02:52:16;;;;;;;13.38;6.68;;;12.20;99.90;;;;;;5075565;28;20051;-87
2021/09/23 02:55:05;;;;;;;12.70;5.82;;;13.20;99.90;;;;;;5090948;23;20625;-85
2021/09/23 02:57:36;;;;;;;15.00;6.45;;;13.30;99.90;;;;;;5061898;23;20037;-91
2021/09/23 03:00:44;;;;;;;13.10;6.32;;;13.40;99.90;;;;;;5050367;28;20053;-90
2021/09/23 03:03:27;;;;;;;11.13;6.07;;;13.40;99.90;;;;;;5055232;28;20060;-91
2021/09/23 03:06:19;;;;;;;15.25;6.43;;;13.50;99.90;;;;;;5054132;28;20045;-92
2021/09/23 03:12:23;;;;;;;12.45;7.25;;;13.60;99.90;;;;;;5014370;28;20076;-88
2021/09/23 03:14:52;;;;;;;14.07;7.30;;;13.70;99.90;;;;;;5015822;28;20049;-90
2021/09/23 03:17:24;;;;;;;14.18;7.28;;;13.80;99.90;;;;;;5018447;28;20038;-86
2021/09/23 03:20:21;;;;;;;14.98;7.45;;;13.80;99.90;;;;;;5010941;28;20048;-87
2021/09/23 03:22:55;;;;;;;17.42;8.90;;;13.90;99.90;;;;;;5015357;28;20054;-87
2021/09/23 03:25:24;;;;;;;15.35;8.05;;;14.00;99.90;;;;;;5058851;28;20123;-88
2021/09/23 03:28:14;;;;;;;15.30;7.93;;;14.00;99.90;;;;;;5055224;28;20053;-89
2021/09/23 03:30:58;;;;;;;14.65;8.13;;;14.10;99.90;;;;;;5007636;28;20493;-87
2021/09/23 03:34:01;;;;;;;15.93;9.00;;;14.00;99.90;;;;;;5050674;28;20038;-88
2021/09/23 03:36:57;;;;;;;13.70;7.47;;;14.20;99.90;;;;;;5053986;23;20059;-85
2021/09/23 03:39:26;;;;;;;12.77;7.50;;;14.20;99.90;;;;;;5096508;28;20031;-86
2021/09/23 03:41:57;;;;;;;14.02;8.25;;;14.20;99.90;;;;;;5110521;28;20044;-86
2021/09/23 03:44:26;;;;;;;13.93;7.85;;;14.20;99.90;;;;;;5090505;28;20044;-87
2021/09/23 03:47:00;;;;;;;13.57;7.10;;;14.20;99.90;;;;;;5111096;28;20049;-87
2021/09/23 03:49:33;;;;;;;13.73;7.57;;;14.20;99.90;;;;;;5109969;28;20050;-85
2021/09/23 03:52:27;;;;;;;12.85;7.28;;;14.20;99.90;;;;;;5088221;28;20040;-88
2021/09/23 03:54:59;;;;;;;16.50;8.85;;;14.20;99.90;;;;;;5070505;28;20053;-87
2021/09/23 03:57:29;;;;;;;13.45;7.20;;;13.60;99.90;;;;;;5068004;28;20054;-87
2021/09/23 03:59:59;;;;;;;18.10;8.10;;;14.10;99.90;;;;;;5053382;28;20045;-84
2021/09/23 04:02:31;;;;;;;12.82;7.40;;;14.10;99.90;;;;;;5054826;28;20051;-86
2021/09/23 04:05:03;;;;;;;14.65;8.48;;;14.00;99.90;;;;;;5058295;28;20074;-86
2021/09/23 04:07:37;;;;;;;17.15;9.55;;;13.90;99.90;;;;;;5014239;28;20055;-89
2021/09/23 04:10:18;;;;;;;14.88;8.27;;;13.90;99.90;;;;;;5055892;28;20072;-85
2021/09/23 04:13:04;;;;;;;15.98;9.27;;;13.80;99.90;;;;;;5057319;28;20049;-85
2021/09/23 04:15:46;;;;;;;11.50;6.82;;;13.80;99.90;;;;;;5037621;28;20133;-86
2021/09/23 04:18:17;;;;;;;14.32;7.65;;;12.70;99.90;;;;;;5038142;28;20357;-86
2021/09/23 04:21:15;;;;;;;15.70;9.02;;;13.70;99.90;;;;;;5127169;22;20062;-87
2021/09/23 04:24:38;;;;;;;12.13;7.10;;;13.60;99.90;;;;;;5059887;28;20044;-87
2021/09/23 04:27:12;;;;;;;13.43;7.55;;;13.60;99.90;;;;;;5069238;28;20054;-87
2021/09/23 04:29:44;;;;;;;18.02;7.80;;;13.50;99.90;;;;;;5088690;28;20040;-89
2021/09/23 04:32:16;;;;;;;15.20;7.22;;;13.50;99.90;;;;;;5059104;28;20044;-87
2021/09/23 04:34:45;;;;;;;15.67;7.97;;;13.50;99.90;;;;;;5079218;28;20055;-88
2021/09/23 04:37:15;;;;;;;13.75;7.70;;;13.50;99.90;;;;;;5076463;28;20296;-89
2021/09/23 04:43:01;;;;;;;13.93;9.13;;;13.30;99.90;;;;;;5089202;28;19926;-87
2021/09/23 04:46:22;;;;;;;15.07;8.65;;;13.30;99.90;;;;;;5044403;28;20059;-88
2021/09/23 04:49:00;;;;;;;19.02;8.93;;;13.30;99.90;;;;;;5072804;28;20040;-88
2021/09/23 04:51:30;;;;;;;20.55;8.65;;;13.30;99.90;;;;;;5064698;28;20049;-87
2021/09/23 04:54:26;;;;;;;16.83;9.10;;;13.30;99.90;;;;;;5068183;28;20051;-88
2021/09/23 04:56:56;;;;;;;16.23;8.63;;;13.20;99.90;;;;;;5099688;28;20037;-86
2021/09/23 04:59:42;;;;;;;14.98;8.60;;;13.20;99.90;;;;;;5086287;28;20053;-86
2021/09/23 05:02:34;;;;;;;;;;;13.20;99.90;;;;;;5094841;28;20052;-88
2021/09/23 05:05:34;;;;;;;15.18;8.90;;;13.20;99.90;;;;;;5039123;28;19921;-87
2021/09/23 05:09:01;;;;;;;15.40;8.45;;;13.20;99.90;;;;;;5026459;28;20057;-93
2021/09/23 05:11:55;;;;;;;19.38;8.38;;;13.40;99.90;;;;;;4983294;28;20046;-92
2021/09/23 05:14:38;;;;;;;16.83;9.13;;;13.10;99.90;;;;;;4996296;28;20068;-93
2021/09/23 05:17:47;;;;;;;15.45;8.20;;;13.20;99.90;;;;;;4982995;28;20038;-92
2021/09/23 05:20:42;;;;;;;16.52;8.68;;;13.10;99.90;;;;;;4987847;28;20048;-94
2021/09/23 05:23:33;;;;;;;18.45;9.23;;;13.10;99.90;;;;;;4984098;28;20050;-94
2021/09/23 05:26:16;;;;;;;14.70;8.32;;;13.10;99.90;;;;;;5008462;28;20059;-93
2021/09/23 05:29:32;;;;;;;17.70;8.68;;;13.10;99.90;;;;;;5013866;28;20113;-94
2021/09/23 05:32:20;;;;;;;14.07;7.53;;;13.10;99.90;;;;;;4998182;28;20072;-93
2021/09/23 05:35:04;;;;;;;15.65;7.88;;;13.10;99.90;;;;;;4984388;28;20392;-93
2021/09/23 05:38:01;;;;;;;15.15;7.93;;;13.10;99.90;;;;;;4998871;28;20054;-94
2021/09/23 05:41:46;;;;;;;15.18;7.53;;;13.00;99.90;;;;;;5017757;28;20056;-93
2021/09/23 05:44:56;;;;;;;10.35;6.35;;;13.00;99.90;;;;;;5030915;28;20050;-93
2021/09/23 05:47:48;;;;;;;15.80;7.38;;;13.00;99.90;;;;;;4986458;28;20053;-93
2021/09/23 05:50:43;;;;;;;10.85;6.90;;;13.00;99.90;;;;;;4983994;28;20054;-94
2021/09/23 05:53:47;;;;;;;;;;;13.00;99.90;;;;;;4972982;28;20045;-92
2021/09/23 05:56:44;;;;;;;10.73;5.15;;;12.90;99.90;;;;;;4997181;28;19925;-92
2021/09/23 05:59:34;;;;;;;12.82;6.00;;;13.00;99.90;;;;;;5014210;28;20058;-93
2021/09/23 06:03:04;;;;;;;10.25;4.90;;;13.20;99.90;;;;;;4952489;28;20069;-92
2021/09/23 06:06:02;;;;;;;7.60;4.45;;;13.00;99.90;;;;;;5028373;28;20046;-91
2021/09/23 06:09:33;;;;;;;8.05;3.20;;;13.00;99.90;;;;;;4963646;28;20057;-92
2021/09/23 06:12:44;;;;;;;7.55;3.55;;;13.10;99.90;;;;;;4953471;28;20053;-91
2021/09/23 06:15:52;;;;;;;8.02;3.95;;;13.10;99.90;;;;;;4974296;28;20043;-91
2021/09/23 06:18:40;;;;;;;7.10;3.50;;;13.20;99.90;;;;;;4960218;28;20042;-90
2021/09/23 06:21:40;;;;;;;8.93;3.92;;;13.20;99.90;;;;;;4999987;28;20038;-93
2021/09/23 06:29:41;;;;;;;6.30;2.88;;;13.30;99.90;;;;;;4980522;28;20042;-92
2021/09/23 06:32:14;;;;;;;7.32;2.33;;;13.10;99.90;;;;;;4981424;28;20054;-92
2021/09/23 06:34:45;;;;;;;4.07;2.90;;;12.90;99.90;;;;;;4967203;28;20050;-93
2021/09/23 06:37:32;;;;;;;4.03;2.80;;;13.40;99.90;;;;;;4963557;28;20054;-93
2021/09/23 06:40:23;;;;;;;7.75;2.53;;;13.50;99.90;;;;;;4954544;28;20050;-94
2021/09/23 06:43:19;;;;;;;4.75;1.95;;;13.00;99.90;;;;;;4976753;28;20050;-91
2021/09/23 06:46:02;;;;;;;3.08;2.08;;;13.10;99.90;;;;;;4988562;28;20050;-92
2021/09/23 06:48:50;;;;;;;3.05;2.17;;;13.70;99.90;;;;;;4971340;28;20066;-92
2021/09/23 06:51:30;;;;;;;3.20;1.95;;;13.70;99.90;;;;;;4987457;28;20038;-92
2021/09/23 06:54:12;;;;;;;4.28;2.28;;;13.80;99.90;;;;;;4965767;28;20058;-92
2021/09/23 06:57:19;;;;;;;5.00;2.38;;;13.90;99.90;;;;;;4995636;28;20050;-92
2021/09/23 07:00:33;;;;;;;4.90;2.10;;;14.00;99.90;;;;;;4980705;28;20057;-93
2021/09/23 07:03:37;;;;;;;7.50;2.03;;;14.10;99.90;;;;;;4971260;28;20069;-94
2021/09/23 07:06:45;;;;;;;13.68;2.88;;;14.20;99.90;;;;;;4959826;28;20063;-93
2021/09/23 07:09:48;;;;;;;7.75;3.00;;;14.20;99.90;;;;;;4961370;28;20063;-93
2021/09/23 07:12:43;;;;;;;;;;;14.30;99.90;;;;;;4988284;28;20062;-94
2021/09/23 07:15:43;;;;;;;6.22;2.63;;;14.40;99.90;;;;;;4993463;28;19929;-91
2021/09/23 07:18:34;;;;;;;5.43;2.00;;;14.50;99.90;;;;;;4943110;29;20051;-91
2021/09/23 07:21:29;;;;;;;5.65;2.38;;;14.50;99.90;;;;;;4941782;29;20052;-93
2021/09/23 07:24:38;;;;;;;4.28;2.45;;;14.70;99.90;;;;;;4933635;29;20056;-91
2021/09/23 07:27:43;;;;;;;7.25;2.35;;;14.70;99.90;;;;;;4948336;29;20066;-91
2021/09/23 07:30:24;;;;;;;7.40;2.72;;;14.80;99.90;;;;;;4935245;29;20058;-92
2021/09/23 07:33:11;;;;;;;9.20;2.38;;;14.80;99.90;;;;;;4913122;29;20566;-93
2021/09/23 07:36:06;;;;;;;8.82;2.45;;;14.80;99.90;;;;;;4936552;29;20055;-94
2021/09/23 07:38:58;;;;;;;10.60;3.72;;;15.00;99.90;;;;;;4931737;29;20051;-93
2021/09/23 07:41:52;;;;;;;6.72;2.60;;;13.90;99.90;;;;;;4936730;29;20068;-93
2021/09/23 07:44:40;;;;;;;6.10;3.17;;;15.10;99.90;;;;;;4951355;29;20042;-93
2021/09/23 07:47:37;;;;;;;10.50;2.17;;;15.10;99.90;;;;;;4926445;29;20055;-94
2021/09/23 07:50:28;;;;;;;10.55;2.65;;;15.20;99.90;;;;;;4957324;28;20055;-94
2021/09/23 07:53:10;;;;;;;6.38;2.72;;;15.30;99.90;;;;;;4966451;28;20050;-92
2021/09/23 07:55:42;;;;;;;6.57;2.08;;;15.30;99.90;;;;;;4968465;28;20060;-92
2021/09/23 07:58:23;;;;;;;;;;;15.30;99.90;;;;;;4992415;28;20047;-91
2021/09/23 08:00:54;;;;;;;6.88;3.30;;;15.40;99.90;;;;;;4991393;28;19916;-92
2021/09/23 08:04:36;;;;;;;5.03;2.40;;;15.50;99.90;;;;;;4973098;28;20061;-93
2021/09/23 08:07:07;;;;;;;9.55;3.75;;;15.50;99.90;;;;;;4964503;28;20055;-93
2021/09/23 08:10:08;;;;;;;10.85;3.25;;;15.50;99.90;;;;;;4978480;28;20058;-94
2021/09/23 08:13:23;;;;;;;5.55;2.33;;;15.70;99.90;;;;;;4979518;28;20169;-92
2021/09/23 08:16:03;;;;;;;12.05;3.60;;;15.60;99.90;;;;;;4981198;28;20050;-91
2021/09/23 08:19:29;;;;;;;6.03;2.70;;;15.70;99.90;;;;;;5003688;28;20056;-92
2021/09/23 08:22:31;;;;;;;6.13;2.28;;;15.80;99.90;;;;;;5017055;28;20414;-93
2021/09/23 08:25:49;;;;;;;6.65;2.45;;;15.90;99.90;;;;;;4995497;28;20058;-92
2021/09/23 08:29:08;;;;;;;5.75;2.08;;;15.90;99.90;;;;;;4994710;28;20073;-92
2021/09/23 08:32:46;;;;;;;16.23;2.97;;;16.10;99.90;;;;;;5004392;28;20039;-93
2021/09/23 08:35:59;;;;;;;5.32;2.60;;;16.10;99.90;;;;;;4983023;28;20058;-91
2021/09/23 08:39:15;;;;;;;11.68;2.85;;;16.10;99.90;;;;;;4999295;28;20047;-92
2021/09/23 08:42:02;;;;;;;17.02;3.20;;;16.10;99.90;;;;;;4984860;28;20041;-92
2021/09/23 08:45:41;;;;;;;8.80;3.25;;;15.20;99.90;;;;;;4977551;28;20047;-93
2021/09/23 08:49:00;;;;;;;9.05;2.90;;;16.30;99.90;;;;;;5162115;23;20046;-85
2021/09/23 08:52:26;;;;;;;6.90;3.08;;;16.50;99.90;;;;;;5048260;28;20057;-86
2021/09/23 08:55:04;;;;;;;5.57;2.20;;;16.40;99.90;;;;;;5030435;28;20053;-85
2021/09/23 08:57:43;;;;;;;5.00;2.22;;;16.40;99.90;;;;;;4986711;28;20067;-86
2021/09/23 09:00:25;;;;;;;6.30;3.42;;;16.40;99.90;;;;;;5040785;28;20037;-86
2021/09/23 09:03:20;;;;;;;7.47;2.90;;;16.60;99.90;;;;;;5026126;28;20059;-87
2021/09/23 09:07:13;;;;;;;11.77;3.10;;;16.50;99.90;;;;;;5052462;28;20035;-86
2021/09/23 09:10:09;;;;;;;7.78;2.53;;;16.70;99.90;;;;;;5016004;28;20045;-85
2021/09/23 09:13:05;;;;;;;10.70;2.58;;;16.80;99.90;;;;;;4996320;28;20053;-85
2021/09/23 09:15:50;;;;;;;6.70;2.47;;;16.80;99.90;;;;;;5056409;28;20060;-85
2021/09/23 09:18:24;;;;;;;6.07;2.63;;;16.90;99.90;;;;;;5006666;28;20045;-85
2021/09/23 09:21:09;;;;;;;3.97;2.40;;;16.80;99.90;;;;;;5023598;28;20056;-85
2021/09/23 09:23:52;;;;;;;7.78;2.22;;;15.90;99.90;;;;;;5048927;28;20044;-85
2021/09/23 09:26:40;;;;;;;5.43;2.70;;;16.90;99.90;;;;;;5045474;28;20053;-83
2021/09/23 09:34:04;;;;;;;6.07;2.72;;;17.10;99.90;;;;;;4940644;29;20043;-86
2021/09/23 09:37:00;;;;;;;9.45;2.03;;;17.30;99.90;;;;;;4930521;29;20060;-87
2021/09/23 09:39:45;;;;;;;8.33;1.90;;;17.30;99.90;;;;;;4934235;29;20036;-87
2021/09/23 09:42:19;;;;;;;10.43;2.30;;;17.40;99.90;;;;;;4908840;29;20036;-86
2021/09/23 09:45:00;;;;;;;5.15;1.80;;;17.40;99.90;;;;;;4945374;29;20028;-85
2021/09/23 09:47:41;;;;;;;6.30;2.60;;;17.50;99.90;;;;;;4925223;29;20062;-86
2021/09/23 09:50:16;;;;;;;7.30;2.53;;;17.70;99.90;;;;;;4903830;29;20058;-87
2021/09/23 09:52:57;;;;;;;8.20;2.47;;;17.80;99.90;;;;;;4931219;29;20044;-88
2021/09/23 09:55:45;;;;;;;15.82;2.83;;;17.80;99.90;;;;;;4947087;29;20054;-86
2021/09/23 09:58:24;;;;;;;9.02;3.85;;;17.90;99.90;;;;;;4947000;29;20044;-85
2021/09/23 10:00:56;;;;;;;7.43;2.72;;;18.00;99.90;;;;;;4952527;23;20044;-91
2021/09/23 10:03:41;;;;;;;9.35;3.08;;;18.00;99.90;;;;;;4950158;28;20060;-90
2021/09/23 10:06:33;;;;;;;9.32;2.75;;;18.20;99.90;;;;;;4959484;28;20054;-90
2021/09/23 10:09:38;;;;;;;7.65;2.78;;;18.20;99.90;;;;;;4954979;28;20039;-91
2021/09/23 10:12:09;;;;;;;8.82;3.03;;;18.10;99.90;;;;;;4958802;28;20057;-89
2021/09/23 10:15:18;;;;;;;15.43;3.20;;;18.30;99.90;;;;;;4969381;28;20050;-89
2021/09/23 10:18:04;;;;;;;11.50;4.43;;;18.40;99.90;;;;;;4982662;28;20047;-89
2021/09/23 10:21:13;;;;;;;;;;;18.50;99.90;;;;;;4986303;28;20047;-91
2021/09/23 10:23:47;;;;;;;4.32;2.38;;;18.90;99.90;;;;;;4971412;28;19918;-90
2021/09/23 10:26:43;;;;;;;6.07;2.65;;;18.90;99.90;;;;;;4960832;28;20051;-91
2021/09/23 10:29:28;;;;;;;7.40;2.97;;;17.40;99.90;;;;;;4956048;28;20069;-91
2021/09/23 10:32:00;;;;;;;7.18;2.58;;;18.70;99.90;;;;;;4963694;29;20049;-91
2021/09/23 10:34:39;;;;;;;6.63;2.42;;;18.80;99.90;;;;;;4953949;28;20055;-91
2021/09/23 10:37:34;;;;;;;5.97;2.42;;;18.80;99.90;;;;;;4979460;28;20031;-92
2021/09/23 10:40:19;;;;;;;7.18;2.75;;;18.80;99.90;;;;;;4971942;28;20047;-91
2021/09/23 10:43:09;;;;;;;8.43;2.60;;;18.80;99.90;;;;;;4949453;28;20058;-89
2021/09/23 10:45:42;;;;;;;8.55;3.05;;;18.90;99.90;;;;;;4965456;28;20039;-91
2021/09/23 10:48:21;;;;;;;7.95;2.90;;;18.90;99.90;;;;;;4956708;28;20035;-90
2021/09/23 10:50:55;;;;;;;4.70;2.28;;;19.00;99.90;;;;;;4949517;28;20059;-89
2021/09/23 10:53:34;;;;;;;5.82;2.28;;;19.10;99.90;;;;;;4963588;28;20055;-91
2021/09/23 10:56:23;;;;;;;10.77;3.22;;;19.30;99.90;;;;;;4934820;28;20051;-91
2021/09/23 10:59:10;;;;;;;15.02;4.47;;;18.30;99.90;;;;;;4953006;28;20054;-91
2021/09/23 11:01:48;;;;;;;6.43;2.42;;;19.50;99.90;;;;;;4961269;28;20062;-90
2021/09/23 11:04:37;;;;;;;7.07;2.60;;;19.60;99.90;;;;;;4998998;28;20040;-91
2021/09/23 11:07:43;;;;;;;8.00;2.30;;;19.70;99.90;;;;;;5016589;28;20049;-92
2021/09/23 11:10:25;;;;;;;8.50;2.22;;;19.90;99.90;;;;;;4992555;28;20048;-93
2021/09/23 11:13:56;;;;;;;12.50;2.53;;;20.00;99.90;;;;;;5015075;28;20057;-92
2021/09/23 11:16:59;;;;;;;10.75;2.25;;;20.20;99.90;;;;;;4995420;28;20069;-89
2021/09/23 11:19:46;;;;;;;7.10;2.95;;;20.10;99.90;;;;;;4987345;28;20254;-91
2021/09/23 11:22:46;;;;;;;13.43;4.35;;;20.20;99.90;;;;;;5002684;28;20045;-91
2021/09/23 11:25:59;;;;;;;9.50;2.28;;;20.30;99.90;;;;;;5007466;28;20041;-91
2021/09/23 11:28:49;;;;;;;12.60;2.15;;;20.40;99.90;;;;;;4971914;28;20045;-91
2021/09/23 11:31:24;;;;;;;11.02;3.20;;;20.40;99.90;;;;;;4993103;28;20050;-91
2021/09/23 11:34:04;;;;;;;10.15;2.30;;;20.40;99.90;;;;;;4989989;28;20069;-90
2021/09/23 11:36:58;;;;;;;7.47;2.13;;;20.40;99.90;;;;;;5013935;28;20048;-91
2021/09/23 11:40:12;;;;;;;6.95;2.47;;;20.40;99.90;;;;;;5105960;22;20056;-86
2021/09/23 11:42:44;;;;;;;8.85;2.20;;;20.50;99.90;;;;;;5074433;28;20047;-87
2021/09/23 11:45:23;;;;;;;7.95;2.15;;;20.50;99.90;;;;;;5043085;28;20033;-85
2021/09/23 11:48:27;;;;;;;15.88;4.07;;;20.60;99.90;;;;;;5083066;28;20047;-86
2021/09/23 11:51:15;;;;;;;8.60;2.55;;;20.70;99.90;;;;;;5039796;28;20044;-86
2021/09/23 11:54:07;;;;;;;10.85;3.78;;;19.80;99.90;;;;;;5078573;28;20059;-85
2021/09/23 11:57:00;;;;;;;10.18;2.53;;;21.00;99.90;;;;;;5060285;28;20043;-85
2021/09/23 11:59:57;;;;;;;14.43;2.33;;;21.20;99.90;;;;;;5044266;28;20045;-88
2021/09/23 12:05:30;;;;;;;6.68;2.17;;;21.30;99.90;;;;;;5047552;28;20049;-87
2021/09/23 12:08:09;;;;;;;18.25;2.88;;;21.50;99.90;;;;;;5034799;28;20080;-86
2021/09/23 12:10:48;;;;;;;8.20;3.08;;;21.70;99.90;;;;;;5028613;28;20045;-87
2021/09/23 12:13:50;;;;;;;12.95;2.20;;;21.70;99.90;;;;;;5026131;28;20056;-85
2021/09/23 12:16:32;;;;;;;8.95;2.45;;;21.70;99.90;;;;;;5026811;28;20050;-87
2021/09/23 12:19:17;;;;;;;10.45;2.00;;;21.70;99.90;;;;;;5017363;28;20053;-87
2021/09/23 12:21:54;;;;;;;14.23;2.03;;;21.60;99.90;;;;;;5016014;28;20054;-87
2021/09/23 12:24:43;;;;;;;10.73;1.88;;;21.50;99.90;;;;;;5022277;28;20058;-87
2021/09/23 12:27:27;;;;;;;6.88;2.08;;;21.50;99.90;;;;;;5024930;28;20301;-88
2021/09/23 12:29:59;;;;;;;9.38;2.88;;;21.40;99.90;;;;;;5003444;28;20033;-86
2021/09/23 12:32:44;;;;;;;9.23;2.00;;;21.30;99.90;;;;;;5041790;28;20048;-90
2021/09/23 12:35:34;;;;;;;8.82;3.65;;;21.20;99.90;;;;;;5024106;28;20049;-87
2021/09/23 12:38:37;;;;;;;10.88;1.98;;;21.10;99.90;;;;;;5030471;28;20252;-87
2021/09/23 12:41:50;;;;;;;7.10;2.10;;;21.10;99.90;;;;;;5086644;23;20051;-88
2021/09/23 12:44:25;;;;;;;9.45;2.15;;;21.30;99.90;;;;;;5024115;28;20048;-86
2021/09/23 12:47:13;;;;;;;8.93;2.40;;;21.40;99.90;;;;;;5035428;28;20036;-89
2021/09/23 12:50:07;;;;;;;3.90;2.63;;;21.60;99.90;;;;;;5054853;28;20057;-85
2021/09/23 12:52:47;;;;;;;6.43;2.33;;;21.70;99.90;;;;;;5048064;28;20063;-84
2021/09/23 12:59:48;;;;;;;6.20;2.25;;;22.00;99.90;;;;;;5049616;28;20055;-87
2021/09/23 13:02:28;;;;;;;4.32;2.03;;;22.20;99.90;;;;;;5032199;28;20029;-87
2021/09/23 13:05:30;;;;;;;7.22;1.52;;;22.30;99.90;;;;;;5061878;28;20049;-87
2021/09/23 13:08:28;;;;;;;10.50;1.90;;;22.30;99.70;;;;;;5062340;28;20415;-87
2021/09/23 13:11:51;;;;;;;5.97;1.70;;;22.80;99.90;;;;;;5023370;28;20040;-86
2021/09/23 13:14:46;;;;;;;11.85;2.67;;;22.40;99.70;;;;;;4975326;28;20054;-88
2021/09/23 13:17:24;;;;;;;4.80;1.55;;;22.00;99.70;;;;;;4960365;29;20110;-90
2021/09/23 13:19:56;;;;;;;5.43;1.75;;;22.10;99.90;;;;;;4980539;28;20043;-88
2021/09/23 13:23:01;;;;;;;6.70;1.70;;;22.00;99.90;;;;;;4963366;28;20049;-88
2021/09/23 13:25:31;;;;;;;8.40;2.45;;;21.80;99.90;;;;;;4982832;28;20061;-88
2021/09/23 13:28:27;;;;;;;8.20;1.58;;;21.70;99.90;;;;;;4957068;28;20052;-91
2021/09/23 13:31:37;;;;;;;6.78;1.80;;;21.60;99.90;;;;;;4940369;28;20051;-89
2021/09/23 13:34:12;;;;;;;8.52;1.98;;;21.50;99.90;;;;;;4938372;28;20053;-90
2021/09/23 13:36:46;;;;;;;11.35;1.52;;;21.40;99.90;;;;;;4948533;28;20051;-89
2021/09/23 13:39:24;;;;;;;3.30;1.67;;;21.30;99.90;;;;;;4965085;28;20047;-90
2021/09/23 13:41:57;;;;;;;9.52;1.67;;;21.30;99.90;;;;;;4961501;28;20063;-91
2021/09/23 13:45:00;;;;;;;8.82;1.83;;;21.40;99.90;;;;;;4982219;28;20051;-90
2021/09/23 13:47:36;;;;;;;8.47;2.17;;;21.30;99.90;;;;;;4968462;28;20300;-91
2021/09/23 13:50:08;;;;;;;4.13;1.60;;;21.30;99.90;;;;;;4942553;29;20039;-92
2021/09/23 13:52:50;;;;;;;6.03;1.63;;;21.30;99.90;;;;;;4947738;29;20071;-92
2021/09/23 13:55:28;;;;;;;2.00;1.30;;;21.30;99.90;;;;;;4944796;28;20047;-92
2021/09/23 13:58:09;;;;;;;7.32;1.63;;;21.30;99.90;;;;;;4949878;29;20047;-91
2021/09/23 14:01:06;;;;;;;5.63;1.80;;;21.20;99.90;;;;;;4979667;28;20062;-92
2021/09/23 14:04:17;;;;;;;8.93;1.60;;;21.20;99.90;;;;;;4960628;28;20451;-90
2021/09/23 14:06:54;;;;;;;8.95;1.50;;;21.20;99.90;;;;;;4953631;28;20039;-92
2021/09/23 14:09:35;;;;;;;8.38;1.52;;;21.10;99.90;;;;;;4982669;28;20046;-90
2021/09/23 14:12:41;;;;;;;5.95;1.15;;;21.10;99.90;;;;;;4967965;28;20058;-86
2021/09/23 14:15:17;;;;;;;2.65;1.30;;;21.10;99.90;;;;;;4975310;28;20769;-84
2021/09/23 14:17:54;;;;;;;3.97;1.65;;;21.10;99.90;;;;;;4994693;28;20042;-85
2021/09/23 14:20:44;;;;;;;7.10;1.17;;;21.10;99.90;;;;;;4990938;28;20755;-89
2021/09/23 14:23:14;;;;;;;6.07;1.35;;;21.10;99.90;;;;;;4979594;28;20065;-85
2021/09/23 14:26:06;;;;;;;5.13;1.23;;;21.20;99.90;;;;;;4979745;28;20046;-84
2021/09/23 14:28:37;;;;;;;6.97;1.65;;;21.30;99.90;;;;;;4976366;28;20054;-83
2021/09/23 14:31:10;;;;;;;4.43;1.40;;;21.30;99.90;;;;;;4987789;28;20044;-85
2021/09/23 14:33:47;;;;;;;7.78;2.10;;;20.50;99.90;;;;;;4973266;28;20054;-86
2021/09/23 14:36:18;;;;;;;2.95;1.15;;;21.60;99.90;;;;;;4979200;28;20054;-84
2021/09/23 14:38:50;;;;;;;6.13;1.80;;;21.60;99.90;;;;;;5003142;28;20042;-84
2021/09/23 14:41:24;;;;;;;4.03;1.90;;;21.60;99.90;;;;;;4987397;28;20050;-82
2021/09/23 14:43:53;;;;;;;4.45;1.23;;;21.50;99.90;;;;;;4989599;28;20042;-83
2021/09/23 14:46:23;;;;;;;10.55;1.70;;;21.40;99.90;;;;;;4990115;28;20664;-85
2021/09/23 14:48:58;;;;;;;6.23;1.90;;;21.30;99.90;;;;;;5000843;28;20046;-85
2021/09/23 14:51:34;;;;;;;3.65;0.80;;;21.20;99.90;;;;;;4986479;28;20294;-84
2021/09/23 14:54:27;;;;;;;5.70;2.28;;;21.20;99.90;;;;;;5012161;28;20498;-84
2021/09/23 14:57:09;;;;;;;4.53;1.63;;;22.60;99.90;;;;;;4986303;28;20058;-83
2021/09/23 14:59:48;;;;;;;6.85;1.70;;;21.50;99.90;;;;;;4981274;28;20042;-84